sensor_id;sensor_type;location;lat;lon;timestamp;P1;durP1;ratioP1;P2;durP2;ratioP2
53401;SDS011;39295;45.534;20.034;2023-02-28T00:13:44;18.55;;;12.88;;
53401;SDS011;39295;45.534;20.034;2023-02-28T00:16:15;21.50;;;15.18;;
53401;SDS011;39295;45.534;20.034;2023-02-28T00:18:41;21.70;;;15.00;;
53401;SDS011;39295;45.534;20.034;2023-02-28T00:21:08;21.48;;;14.50;;
53401;SDS011;39295;45.534;20.034;2023-02-28T00:23:37;18.95;;;14.75;;
53401;SDS011;39295;45.534;20.034;2023-02-28T00:29:09;21.95;;;15.70;;
53401;SDS011;39295;45.534;20.034;2023-02-28T00:37:37;20.98;;;15.07;;
53401;SDS011;39295;45.534;20.034;2023-02-28T00:43:06;21.75;;;14.60;;
53401;SDS011;39295;45.534;20.034;2023-02-28T00:45:32;20.02;;;14.38;;
53401;SDS011;39295;45.534;20.034;2023-02-28T00:47:58;23.27;;;15.65;;
53401;SDS011;39295;45.534;20.034;2023-02-28T00:50:25;22.88;;;15.32;;
53401;SDS011;39295;45.534;20.034;2023-02-28T00:52:51;25.10;;;16.42;;
53401;SDS011;39295;45.534;20.034;2023-02-28T00:58:21;23.80;;;16.30;;
53401;SDS011;39295;45.534;20.034;2023-02-28T01:00:47;24.73;;;16.73;;
53401;SDS011;39295;45.534;20.034;2023-02-28T01:03:15;22.85;;;16.50;;
53401;SDS011;39295;45.534;20.034;2023-02-28T01:05:44;25.20;;;16.42;;
53401;SDS011;39295;45.534;20.034;2023-02-28T01:11:12;24.75;;;16.05;;
53401;SDS011;39295;45.534;20.034;2023-02-28T01:13:38;24.73;;;15.75;;
53401;SDS011;39295;45.534;20.034;2023-02-28T01:16:06;26.00;;;16.70;;
53401;SDS011;39295;45.534;20.034;2023-02-28T01:18:32;25.10;;;15.70;;
53401;SDS011;39295;45.534;20.034;2023-02-28T01:21:02;24.50;;;15.93;;
53401;SDS011;39295;45.534;20.034;2023-02-28T01:23:30;28.35;;;17.75;;
53401;SDS011;39295;45.534;20.034;2023-02-28T01:25:56;26.55;;;17.58;;
53401;SDS011;39295;45.534;20.034;2023-02-28T01:28:22;29.80;;;18.20;;
53401;SDS011;39295;45.534;20.034;2023-02-28T01:30:49;29.85;;;18.30;;
53401;SDS011;39295;45.534;20.034;2023-02-28T01:33:15;30.00;;;18.67;;
53401;SDS011;39295;45.534;20.034;2023-02-28T01:35:41;25.77;;;16.55;;
53401;SDS011;39295;45.534;20.034;2023-02-28T01:38:43;28.40;;;17.20;;
53401;SDS011;39295;45.534;20.034;2023-02-28T01:41:21;25.15;;;16.67;;
53401;SDS011;39295;45.534;20.034;2023-02-28T01:46:29;27.42;;;18.38;;
53401;SDS011;39295;45.534;20.034;2023-02-28T01:49:00;27.42;;;16.98;;
53401;SDS011;39295;45.534;20.034;2023-02-28T01:51:38;25.65;;;17.15;;
53401;SDS011;39295;45.534;20.034;2023-02-28T01:54:11;23.15;;;15.63;;
53401;SDS011;39295;45.534;20.034;2023-02-28T01:56:43;25.92;;;17.00;;
53401;SDS011;39295;45.534;20.034;2023-02-28T01:59:10;26.52;;;17.75;;
53401;SDS011;39295;45.534;20.034;2023-02-28T02:01:38;26.23;;;17.40;;
53401;SDS011;39295;45.534;20.034;2023-02-28T02:04:04;24.75;;;16.48;;
53401;SDS011;39295;45.534;20.034;2023-02-28T02:06:36;22.65;;;15.20;;
53401;SDS011;39295;45.534;20.034;2023-02-28T02:12:15;21.05;;;14.25;;
53401;SDS011;39295;45.534;20.034;2023-02-28T02:25:53;19.33;;;13.43;;
53401;SDS011;39295;45.534;20.034;2023-02-28T02:36:04;19.30;;;12.68;;
53401;SDS011;39295;45.534;20.034;2023-02-28T02:44:37;18.05;;;12.25;;
53401;SDS011;39295;45.534;20.034;2023-02-28T02:47:06;18.23;;;11.40;;
53401;SDS011;39295;45.534;20.034;2023-02-28T02:49:35;16.20;;;11.25;;
53401;SDS011;39295;45.534;20.034;2023-02-28T02:52:03;18.95;;;12.23;;
53401;SDS011;39295;45.534;20.034;2023-02-28T02:54:30;17.83;;;11.60;;
53401;SDS011;39295;45.534;20.034;2023-02-28T02:56:59;21.63;;;11.55;;
53401;SDS011;39295;45.534;20.034;2023-02-28T02:59:27;17.02;;;11.43;;
53401;SDS011;39295;45.534;20.034;2023-02-28T03:01:57;20.10;;;12.38;;
53401;SDS011;39295;45.534;20.034;2023-02-28T03:35:13;15.00;;;9.65;;
53401;SDS011;39295;45.534;20.034;2023-02-28T03:38:06;15.50;;;9.88;;
53401;SDS011;39295;45.534;20.034;2023-02-28T03:43:49;13.77;;;8.98;;
53401;SDS011;39295;45.534;20.034;2023-02-28T03:46:18;15.02;;;9.68;;
53401;SDS011;39295;45.534;20.034;2023-02-28T03:48:57;13.75;;;9.25;;
53401;SDS011;39295;45.534;20.034;2023-02-28T03:51:45;12.80;;;9.15;;
53401;SDS011;39295;45.534;20.034;2023-02-28T03:58:11;14.75;;;9.13;;
53401;SDS011;39295;45.534;20.034;2023-02-28T04:03:54;25.92;;;13.23;;
53401;SDS011;39295;45.534;20.034;2023-02-28T04:06:21;25.08;;;12.50;;
53401;SDS011;39295;45.534;20.034;2023-02-28T04:08:48;16.95;;;10.43;;
53401;SDS011;39295;45.534;20.034;2023-02-28T04:14:18;17.42;;;10.88;;
53401;SDS011;39295;45.534;20.034;2023-02-28T04:16:45;14.70;;;9.63;;
53401;SDS011;39295;45.534;20.034;2023-02-28T04:19:11;12.07;;;9.38;;
53401;SDS011;39295;45.534;20.034;2023-02-28T04:21:38;14.32;;;9.50;;
53401;SDS011;39295;45.534;20.034;2023-02-28T04:30:34;12.75;;;9.40;;
53401;SDS011;39295;45.534;20.034;2023-02-28T04:33:20;14.73;;;9.93;;
53401;SDS011;39295;45.534;20.034;2023-02-28T04:35:47;15.85;;;10.05;;
53401;SDS011;39295;45.534;20.034;2023-02-28T04:38:15;14.60;;;10.18;;
53401;SDS011;39295;45.534;20.034;2023-02-28T04:40:41;14.00;;;9.63;;
53401;SDS011;39295;45.534;20.034;2023-02-28T04:43:07;13.32;;;9.48;;
53401;SDS011;39295;45.534;20.034;2023-02-28T04:45:33;12.85;;;8.80;;
53401;SDS011;39295;45.534;20.034;2023-02-28T04:48:00;14.63;;;9.70;;
53401;SDS011;39295;45.534;20.034;2023-02-28T04:50:26;15.07;;;9.93;;
53401;SDS011;39295;45.534;20.034;2023-02-28T04:52:52;14.57;;;9.50;;
53401;SDS011;39295;45.534;20.034;2023-02-28T04:58:22;13.77;;;9.48;;
53401;SDS011;39295;45.534;20.034;2023-02-28T05:00:49;14.25;;;9.43;;
53401;SDS011;39295;45.534;20.034;2023-02-28T05:03:15;14.93;;;9.65;;
53401;SDS011;39295;45.534;20.034;2023-02-28T05:05:41;13.80;;;10.38;;
53401;SDS011;39295;45.534;20.034;2023-02-28T05:08:07;14.82;;;10.45;;
53401;SDS011;39295;45.534;20.034;2023-02-28T05:10:34;14.15;;;9.57;;
53401;SDS011;39295;45.534;20.034;2023-02-28T05:13:00;16.23;;;10.88;;
53401;SDS011;39295;45.534;20.034;2023-02-28T05:15:26;15.63;;;11.13;;
53401;SDS011;39295;45.534;20.034;2023-02-28T05:17:52;16.52;;;12.15;;
53401;SDS011;39295;45.534;20.034;2023-02-28T05:20:18;14.10;;;10.35;;
53401;SDS011;39295;45.534;20.034;2023-02-28T05:22:46;16.77;;;10.40;;
53401;SDS011;39295;45.534;20.034;2023-02-28T05:25:13;14.98;;;9.48;;
53401;SDS011;39295;45.534;20.034;2023-02-28T05:27:41;16.13;;;9.90;;
53401;SDS011;39295;45.534;20.034;2023-02-28T05:30:08;16.08;;;10.00;;
53401;SDS011;39295;45.534;20.034;2023-02-28T05:32:38;15.55;;;10.70;;
53401;SDS011;39295;45.534;20.034;2023-02-28T05:35:07;34.72;;;17.20;;
53401;SDS011;39295;45.534;20.034;2023-02-28T05:37:33;28.33;;;16.65;;
53401;SDS011;39295;45.534;20.034;2023-02-28T05:39:59;47.20;;;23.15;;
53401;SDS011;39295;45.534;20.034;2023-02-28T05:42:25;25.45;;;15.27;;
53401;SDS011;39295;45.534;20.034;2023-02-28T05:44:52;17.23;;;10.75;;
53401;SDS011;39295;45.534;20.034;2023-02-28T05:47:18;14.98;;;10.05;;
53401;SDS011;39295;45.534;20.034;2023-02-28T05:49:44;19.63;;;11.07;;
53401;SDS011;39295;45.534;20.034;2023-02-28T05:52:10;16.38;;;10.48;;
53401;SDS011;39295;45.534;20.034;2023-02-28T05:54:36;21.25;;;12.63;;
53401;SDS011;39295;45.534;20.034;2023-02-28T05:57:03;18.85;;;12.70;;
53401;SDS011;39295;45.534;20.034;2023-02-28T05:59:29;16.65;;;11.70;;
53401;SDS011;39295;45.534;20.034;2023-02-28T06:01:55;17.38;;;11.65;;
53401;SDS011;39295;45.534;20.034;2023-02-28T06:04:21;14.50;;;10.82;;
53401;SDS011;39295;45.534;20.034;2023-02-28T06:06:48;18.58;;;11.73;;
53401;SDS011;39295;45.534;20.034;2023-02-28T06:09:14;16.05;;;10.88;;
53401;SDS011;39295;45.534;20.034;2023-02-28T06:14:43;19.00;;;13.35;;
53401;SDS011;39295;45.534;20.034;2023-02-28T06:17:10;18.83;;;13.07;;
53401;SDS011;39295;45.534;20.034;2023-02-28T06:19:39;20.13;;;13.60;;
53401;SDS011;39295;45.534;20.034;2023-02-28T06:22:06;18.85;;;11.90;;
53401;SDS011;39295;45.534;20.034;2023-02-28T06:24:32;15.05;;;10.98;;
53401;SDS011;39295;45.534;20.034;2023-02-28T06:26:58;15.43;;;11.10;;
53401;SDS011;39295;45.534;20.034;2023-02-28T06:29:30;17.02;;;11.27;;
53401;SDS011;39295;45.534;20.034;2023-02-28T06:31:56;13.73;;;10.52;;
53401;SDS011;39295;45.534;20.034;2023-02-28T06:34:22;15.95;;;10.68;;
53401;SDS011;39295;45.534;20.034;2023-02-28T06:36:49;17.15;;;11.27;;
53401;SDS011;39295;45.534;20.034;2023-02-28T06:39:16;18.90;;;12.55;;
53401;SDS011;39295;45.534;20.034;2023-02-28T06:41:42;18.88;;;12.43;;
53401;SDS011;39295;45.534;20.034;2023-02-28T06:44:11;17.83;;;12.15;;
53401;SDS011;39295;45.534;20.034;2023-02-28T06:46:38;18.10;;;12.38;;
53401;SDS011;39295;45.534;20.034;2023-02-28T06:49:05;18.05;;;12.77;;
53401;SDS011;39295;45.534;20.034;2023-02-28T06:51:33;21.30;;;14.35;;
53401;SDS011;39295;45.534;20.034;2023-02-28T06:53:59;21.95;;;14.10;;
53401;SDS011;39295;45.534;20.034;2023-02-28T06:56:25;23.02;;;15.45;;
53401;SDS011;39295;45.534;20.034;2023-02-28T06:58:51;18.52;;;13.35;;
53401;SDS011;39295;45.534;20.034;2023-02-28T07:01:17;19.52;;;13.45;;
53401;SDS011;39295;45.534;20.034;2023-02-28T07:03:44;19.02;;;13.52;;
53401;SDS011;39295;45.534;20.034;2023-02-28T07:06:10;19.70;;;13.73;;
53401;SDS011;39295;45.534;20.034;2023-02-28T07:08:37;19.45;;;12.90;;
53401;SDS011;39295;45.534;20.034;2023-02-28T07:11:05;16.90;;;12.30;;
53401;SDS011;39295;45.534;20.034;2023-02-28T07:13:31;17.10;;;11.65;;
53401;SDS011;39295;45.534;20.034;2023-02-28T07:16:00;18.52;;;12.85;;
53401;SDS011;39295;45.534;20.034;2023-02-28T07:18:27;18.95;;;12.07;;
53401;SDS011;39295;45.534;20.034;2023-02-28T07:20:53;20.02;;;12.20;;
53401;SDS011;39295;45.534;20.034;2023-02-28T07:23:19;16.70;;;11.93;;
53401;SDS011;39295;45.534;20.034;2023-02-28T07:25:45;17.38;;;12.10;;
53401;SDS011;39295;45.534;20.034;2023-02-28T07:28:12;23.90;;;14.93;;
53401;SDS011;39295;45.534;20.034;2023-02-28T07:30:38;23.65;;;16.52;;
53401;SDS011;39295;45.534;20.034;2023-02-28T07:33:04;21.45;;;15.43;;
53401;SDS011;39295;45.534;20.034;2023-02-28T07:35:31;18.02;;;13.25;;
53401;SDS011;39295;45.534;20.034;2023-02-28T07:37:57;17.55;;;14.85;;
53401;SDS011;39295;45.534;20.034;2023-02-28T07:40:24;18.63;;;14.45;;
53401;SDS011;39295;45.534;20.034;2023-02-28T07:42:50;17.83;;;12.73;;
53401;SDS011;39295;45.534;20.034;2023-02-28T07:45:16;20.85;;;14.27;;
53401;SDS011;39295;45.534;20.034;2023-02-28T07:47:42;24.48;;;16.55;;
53401;SDS011;39295;45.534;20.034;2023-02-28T07:50:10;21.88;;;15.30;;
53401;SDS011;39295;45.534;20.034;2023-02-28T07:52:36;24.13;;;18.85;;
53401;SDS011;39295;45.534;20.034;2023-02-28T07:55:03;23.63;;;17.73;;
53401;SDS011;39295;45.534;20.034;2023-02-28T07:57:29;18.48;;;14.15;;
53401;SDS011;39295;45.534;20.034;2023-02-28T07:59:56;19.58;;;15.20;;
53401;SDS011;39295;45.534;20.034;2023-02-28T08:02:22;24.95;;;18.80;;
53401;SDS011;39295;45.534;20.034;2023-02-28T08:04:48;41.58;;;20.15;;
53401;SDS011;39295;45.534;20.034;2023-02-28T08:07:14;19.63;;;15.13;;
53401;SDS011;39295;45.534;20.034;2023-02-28T08:09:40;47.55;;;21.63;;
53401;SDS011;39295;45.534;20.034;2023-02-28T08:12:07;44.08;;;21.95;;
53401;SDS011;39295;45.534;20.034;2023-02-28T08:14:33;35.20;;;20.75;;
53401;SDS011;39295;45.534;20.034;2023-02-28T08:17:00;90.10;;;28.13;;
53401;SDS011;39295;45.534;20.034;2023-02-28T08:19:26;83.53;;;28.17;;
53401;SDS011;39295;45.534;20.034;2023-02-28T08:21:52;57.92;;;22.95;;
53401;SDS011;39295;45.534;20.034;2023-02-28T08:24:18;30.30;;;19.50;;
53401;SDS011;39295;45.534;20.034;2023-02-28T08:26:44;48.63;;;26.25;;
53401;SDS011;39295;45.534;20.034;2023-02-28T08:29:10;41.50;;;23.02;;
53401;SDS011;39295;45.534;20.034;2023-02-28T08:31:36;28.70;;;19.20;;
53401;SDS011;39295;45.534;20.034;2023-02-28T08:34:06;24.30;;;16.88;;
53401;SDS011;39295;45.534;20.034;2023-02-28T08:36:32;22.70;;;16.30;;
53401;SDS011;39295;45.534;20.034;2023-02-28T08:38:58;28.70;;;18.67;;
53401;SDS011;39295;45.534;20.034;2023-02-28T08:41:25;39.20;;;23.55;;
53401;SDS011;39295;45.534;20.034;2023-02-28T08:43:51;34.58;;;19.70;;
53401;SDS011;39295;45.534;20.034;2023-02-28T08:46:18;25.48;;;17.40;;
53401;SDS011;39295;45.534;20.034;2023-02-28T08:48:45;37.80;;;18.75;;
53401;SDS011;39295;45.534;20.034;2023-02-28T08:51:15;52.63;;;21.23;;
53401;SDS011;39295;45.534;20.034;2023-02-28T08:56:11;30.40;;;16.92;;
53401;SDS011;39295;45.534;20.034;2023-02-28T08:58:37;33.90;;;18.65;;
53401;SDS011;39295;45.534;20.034;2023-02-28T09:01:07;33.92;;;18.58;;
53401;SDS011;39295;45.534;20.034;2023-02-28T09:03:34;24.33;;;16.92;;
53401;SDS011;39295;45.534;20.034;2023-02-28T09:06:00;24.73;;;17.55;;
53401;SDS011;39295;45.534;20.034;2023-02-28T09:08:27;23.27;;;16.67;;
53401;SDS011;39295;45.534;20.034;2023-02-28T09:10:53;28.75;;;19.50;;
53401;SDS011;39295;45.534;20.034;2023-02-28T09:13:21;28.52;;;19.38;;
53401;SDS011;39295;45.534;20.034;2023-02-28T09:15:47;28.48;;;19.50;;
53401;SDS011;39295;45.534;20.034;2023-02-28T09:18:13;30.08;;;19.83;;
53401;SDS011;39295;45.534;20.034;2023-02-28T09:20:40;40.40;;;20.95;;
53401;SDS011;39295;45.534;20.034;2023-02-28T09:23:07;69.40;;;27.15;;
53401;SDS011;39295;45.534;20.034;2023-02-28T09:25:33;67.72;;;25.67;;
53401;SDS011;39295;45.534;20.034;2023-02-28T09:27:59;85.65;;;28.30;;
53401;SDS011;39295;45.534;20.034;2023-02-28T09:30:25;72.22;;;28.85;;
53401;SDS011;39295;45.534;20.034;2023-02-28T09:32:52;47.83;;;24.98;;
53401;SDS011;39295;45.534;20.034;2023-02-28T09:35:21;35.88;;;22.58;;
53401;SDS011;39295;45.534;20.034;2023-02-28T09:37:49;61.42;;;25.80;;
53401;SDS011;39295;45.534;20.034;2023-02-28T09:40:16;59.80;;;25.98;;
53401;SDS011;39295;45.534;20.034;2023-02-28T09:42:44;53.22;;;28.83;;
53401;SDS011;39295;45.534;20.034;2023-02-28T09:45:30;44.72;;;24.33;;
53401;SDS011;39295;45.534;20.034;2023-02-28T09:48:02;39.08;;;24.27;;
53401;SDS011;39295;45.534;20.034;2023-02-28T09:52:56;34.97;;;20.45;;
53401;SDS011;39295;45.534;20.034;2023-02-28T09:55:28;33.47;;;20.15;;
53401;SDS011;39295;45.534;20.034;2023-02-28T09:57:55;35.33;;;21.45;;
53401;SDS011;39295;45.534;20.034;2023-02-28T10:00:27;36.58;;;22.13;;
53401;SDS011;39295;45.534;20.034;2023-02-28T10:05:29;40.75;;;23.75;;
53401;SDS011;39295;45.534;20.034;2023-02-28T10:10:40;31.27;;;21.17;;
53401;SDS011;39295;45.534;20.034;2023-02-28T10:13:12;38.03;;;22.40;;
53401;SDS011;39295;45.534;20.034;2023-02-28T10:15:38;44.58;;;25.02;;
53401;SDS011;39295;45.534;20.034;2023-02-28T10:18:05;44.03;;;23.38;;
53401;SDS011;39295;45.534;20.034;2023-02-28T10:20:35;43.03;;;24.02;;
53401;SDS011;39295;45.534;20.034;2023-02-28T10:23:14;49.13;;;25.15;;
53401;SDS011;39295;45.534;20.034;2023-02-28T10:25:43;40.95;;;22.50;;
53401;SDS011;39295;45.534;20.034;2023-02-28T10:28:14;46.55;;;24.08;;
53401;SDS011;39295;45.534;20.034;2023-02-28T10:30:44;49.17;;;24.52;;
53401;SDS011;39295;45.534;20.034;2023-02-28T10:33:30;35.97;;;23.00;;
53401;SDS011;39295;45.534;20.034;2023-02-28T10:35:56;33.03;;;21.65;;
53401;SDS011;39295;45.534;20.034;2023-02-28T10:38:26;43.17;;;25.02;;
53401;SDS011;39295;45.534;20.034;2023-02-28T10:41:12;36.75;;;22.23;;
53401;SDS011;39295;45.534;20.034;2023-02-28T10:43:40;37.22;;;25.70;;
53401;SDS011;39295;45.534;20.034;2023-02-28T10:51:11;32.38;;;21.77;;
53401;SDS011;39295;45.534;20.034;2023-02-28T10:53:51;37.63;;;24.70;;
53401;SDS011;39295;45.534;20.034;2023-02-28T10:56:18;36.90;;;26.25;;
53401;SDS011;39295;45.534;20.034;2023-02-28T10:58:47;32.85;;;22.20;;
53401;SDS011;39295;45.534;20.034;2023-02-28T11:04:00;41.88;;;25.25;;
53401;SDS011;39295;45.534;20.034;2023-02-28T11:06:29;41.05;;;22.83;;
53401;SDS011;39295;45.534;20.034;2023-02-28T11:08:56;45.83;;;26.85;;
53401;SDS011;39295;45.534;20.034;2023-02-28T11:11:26;44.10;;;26.02;;
53401;SDS011;39295;45.534;20.034;2023-02-28T11:13:54;37.20;;;24.10;;
53401;SDS011;39295;45.534;20.034;2023-02-28T11:16:21;42.70;;;24.30;;
53401;SDS011;39295;45.534;20.034;2023-02-28T11:18:55;59.20;;;27.63;;
53401;SDS011;39295;45.534;20.034;2023-02-28T11:21:26;95.95;;;36.03;;
53401;SDS011;39295;45.534;20.034;2023-02-28T11:23:56;107.30;;;47.65;;
53401;SDS011;39295;45.534;20.034;2023-02-28T11:26:46;65.72;;;35.30;;
53401;SDS011;39295;45.534;20.034;2023-02-28T11:29:20;40.40;;;26.48;;
53401;SDS011;39295;45.534;20.034;2023-02-28T11:32:00;45.00;;;26.92;;
53401;SDS011;39295;45.534;20.034;2023-02-28T11:34:27;35.15;;;23.65;;
53401;SDS011;39295;45.534;20.034;2023-02-28T11:36:54;36.92;;;23.45;;
53401;SDS011;39295;45.534;20.034;2023-02-28T11:39:21;34.00;;;23.10;;
53401;SDS011;39295;45.534;20.034;2023-02-28T11:53:05;36.85;;;24.35;;
53401;SDS011;39295;45.534;20.034;2023-02-28T11:55:42;37.67;;;24.50;;
53401;SDS011;39295;45.534;20.034;2023-02-28T12:03:30;48.55;;;30.10;;
53401;SDS011;39295;45.534;20.034;2023-02-28T12:06:03;39.80;;;26.00;;
53401;SDS011;39295;45.534;20.034;2023-02-28T12:08:49;41.42;;;26.52;;
53401;SDS011;39295;45.534;20.034;2023-02-28T12:22:03;37.42;;;23.08;;
53401;SDS011;39295;45.534;20.034;2023-02-28T12:24:50;30.75;;;20.88;;
53401;SDS011;39295;45.534;20.034;2023-02-28T12:27:21;35.00;;;22.55;;
53401;SDS011;39295;45.534;20.034;2023-02-28T12:34:50;23.90;;;17.40;;
53401;SDS011;39295;45.534;20.034;2023-02-28T12:37:20;25.27;;;15.98;;
53401;SDS011;39295;45.534;20.034;2023-02-28T12:39:49;24.20;;;16.48;;
53401;SDS011;39295;45.534;20.034;2023-02-28T12:48:40;41.53;;;25.95;;
53401;SDS011;39295;45.534;20.034;2023-02-28T12:51:07;37.97;;;25.88;;
53401;SDS011;39295;45.534;20.034;2023-02-28T12:53:45;39.33;;;26.25;;
53401;SDS011;39295;45.534;20.034;2023-02-28T12:59:09;34.20;;;23.55;;
53401;SDS011;39295;45.534;20.034;2023-02-28T13:01:47;34.10;;;21.90;;
53401;SDS011;39295;45.534;20.034;2023-02-28T13:09:30;30.00;;;19.42;;
53401;SDS011;39295;45.534;20.034;2023-02-28T13:15:22;29.00;;;19.67;;
53401;SDS011;39295;45.534;20.034;2023-02-28T13:17:49;33.47;;;22.25;;
53401;SDS011;39295;45.534;20.034;2023-02-28T13:20:26;28.98;;;19.65;;
53401;SDS011;39295;45.534;20.034;2023-02-28T13:22:53;27.33;;;19.95;;
53401;SDS011;39295;45.534;20.034;2023-02-28T13:34:36;26.05;;;19.00;;
53401;SDS011;39295;45.534;20.034;2023-02-28T13:39:45;39.13;;;26.00;;
53401;SDS011;39295;45.534;20.034;2023-02-28T13:50:13;38.08;;;25.10;;
53401;SDS011;39295;45.534;20.034;2023-02-28T13:52:48;37.90;;;25.42;;
53401;SDS011;39295;45.534;20.034;2023-02-28T13:57:54;40.22;;;24.95;;
53401;SDS011;39295;45.534;20.034;2023-02-28T14:05:48;32.78;;;22.45;;
53401;SDS011;39295;45.534;20.034;2023-02-28T14:08:33;32.42;;;22.08;;
53401;SDS011;39295;45.534;20.034;2023-02-28T14:14:03;31.20;;;19.88;;
53401;SDS011;39295;45.534;20.034;2023-02-28T14:16:39;29.95;;;20.17;;
53401;SDS011;39295;45.534;20.034;2023-02-28T14:22:10;31.95;;;20.98;;
53401;SDS011;39295;45.534;20.034;2023-02-28T14:24:48;36.25;;;23.17;;
53401;SDS011;39295;45.534;20.034;2023-02-28T14:27:37;38.78;;;25.38;;
53401;SDS011;39295;45.534;20.034;2023-02-28T14:37:53;31.67;;;21.08;;
53401;SDS011;39295;45.534;20.034;2023-02-28T14:42:59;108.05;;;37.50;;
53401;SDS011;39295;45.534;20.034;2023-02-28T14:45:26;139.38;;;49.03;;
53401;SDS011;39295;45.534;20.034;2023-02-28T14:47:53;156.35;;;61.03;;
53401;SDS011;39295;45.534;20.034;2023-02-28T14:50:20;105.03;;;49.45;;
53401;SDS011;39295;45.534;20.034;2023-02-28T14:52:47;48.80;;;29.08;;
53401;SDS011;39295;45.534;20.034;2023-02-28T14:55:14;52.88;;;31.77;;
53401;SDS011;39295;45.534;20.034;2023-02-28T14:58:04;49.40;;;31.25;;
53401;SDS011;39295;45.534;20.034;2023-02-28T15:00:32;45.40;;;30.40;;
53401;SDS011;39295;45.534;20.034;2023-02-28T15:02:59;42.60;;;25.85;;
53401;SDS011;39295;45.534;20.034;2023-02-28T15:08:02;42.00;;;28.50;;
53401;SDS011;39295;45.534;20.034;2023-02-28T15:10:29;48.42;;;30.85;;
53401;SDS011;39295;45.534;20.034;2023-02-28T15:15:22;45.05;;;29.70;;
53401;SDS011;39295;45.534;20.034;2023-02-28T15:17:52;45.10;;;28.63;;
53401;SDS011;39295;45.534;20.034;2023-02-28T15:20:20;40.65;;;27.13;;
53401;SDS011;39295;45.534;20.034;2023-02-28T15:22:47;35.13;;;22.75;;
53401;SDS011;39295;45.534;20.034;2023-02-28T15:25:17;39.67;;;26.67;;
53401;SDS011;39295;45.534;20.034;2023-02-28T15:31:03;41.50;;;26.40;;
53401;SDS011;39295;45.534;20.034;2023-02-28T15:33:51;37.65;;;24.42;;
53401;SDS011;39295;45.534;20.034;2023-02-28T15:36:18;39.47;;;24.67;;
53401;SDS011;39295;45.534;20.034;2023-02-28T15:38:51;44.53;;;28.02;;
53401;SDS011;39295;45.534;20.034;2023-02-28T15:41:29;53.25;;;31.92;;
53401;SDS011;39295;45.534;20.034;2023-02-28T15:46:52;53.58;;;34.15;;
53401;SDS011;39295;45.534;20.034;2023-02-28T15:49:20;44.63;;;29.13;;
53401;SDS011;39295;45.534;20.034;2023-02-28T15:51:47;39.22;;;25.60;;
53401;SDS011;39295;45.534;20.034;2023-02-28T15:54:16;41.55;;;27.38;;
53401;SDS011;39295;45.534;20.034;2023-02-28T15:56:46;41.85;;;25.98;;
53401;SDS011;39295;45.534;20.034;2023-02-28T15:59:14;45.92;;;29.38;;
53401;SDS011;39295;45.534;20.034;2023-02-28T16:01:42;42.72;;;28.02;;
53401;SDS011;39295;45.534;20.034;2023-02-28T16:04:15;41.92;;;26.35;;
53401;SDS011;39295;45.534;20.034;2023-02-28T16:06:43;47.70;;;30.73;;
53401;SDS011;39295;45.534;20.034;2023-02-28T16:09:11;42.42;;;27.90;;
53401;SDS011;39295;45.534;20.034;2023-02-28T16:11:59;66.20;;;35.15;;
53401;SDS011;39295;45.534;20.034;2023-02-28T16:14:29;59.05;;;34.17;;
53401;SDS011;39295;45.534;20.034;2023-02-28T16:16:56;58.35;;;32.70;;
53401;SDS011;39295;45.534;20.034;2023-02-28T16:19:23;72.55;;;35.90;;
53401;SDS011;39295;45.534;20.034;2023-02-28T16:21:49;60.20;;;35.42;;
53401;SDS011;39295;45.534;20.034;2023-02-28T16:24:16;51.80;;;32.65;;
53401;SDS011;39295;45.534;20.034;2023-02-28T16:26:47;70.05;;;36.50;;
53401;SDS011;39295;45.534;20.034;2023-02-28T16:29:15;76.45;;;39.60;;
53401;SDS011;39295;45.534;20.034;2023-02-28T16:31:45;60.88;;;36.30;;
53401;SDS011;39295;45.534;20.034;2023-02-28T16:34:11;48.75;;;30.70;;
53401;SDS011;39295;45.534;20.034;2023-02-28T16:36:37;50.50;;;31.75;;
53401;SDS011;39295;45.534;20.034;2023-02-28T16:39:06;47.25;;;29.48;;
53401;SDS011;39295;45.534;20.034;2023-02-28T16:41:32;49.33;;;29.73;;
53401;SDS011;39295;45.534;20.034;2023-02-28T16:43:59;47.35;;;29.02;;
53401;SDS011;39295;45.534;20.034;2023-02-28T16:46:44;41.47;;;26.95;;
53401;SDS011;39295;45.534;20.034;2023-02-28T16:49:11;43.85;;;27.55;;
53401;SDS011;39295;45.534;20.034;2023-02-28T16:51:38;64.60;;;33.13;;
53401;SDS011;39295;45.534;20.034;2023-02-28T16:54:05;68.07;;;38.53;;
53401;SDS011;39295;45.534;20.034;2023-02-28T16:56:31;67.10;;;37.88;;
53401;SDS011;39295;45.534;20.034;2023-02-28T16:58:59;54.55;;;34.17;;
53401;SDS011;39295;45.534;20.034;2023-02-28T17:01:26;51.55;;;32.08;;
53401;SDS011;39295;45.534;20.034;2023-02-28T17:03:52;51.35;;;30.48;;
53401;SDS011;39295;45.534;20.034;2023-02-28T17:06:19;55.00;;;33.08;;
53401;SDS011;39295;45.534;20.034;2023-02-28T17:08:47;57.33;;;35.17;;
53401;SDS011;39295;45.534;20.034;2023-02-28T17:11:13;67.43;;;44.65;;
53401;SDS011;39295;45.534;20.034;2023-02-28T17:13:39;135.05;;;54.92;;
53401;SDS011;39295;45.534;20.034;2023-02-28T17:16:05;222.00;;;69.40;;
53401;SDS011;39295;45.534;20.034;2023-02-28T17:18:32;289.77;;;87.55;;
53401;SDS011;39295;45.534;20.034;2023-02-28T17:21:00;299.35;;;83.53;;
53401;SDS011;39295;45.534;20.034;2023-02-28T17:23:26;386.25;;;94.93;;
53401;SDS011;39295;45.534;20.034;2023-02-28T17:25:52;318.17;;;85.68;;
53401;SDS011;39295;45.534;20.034;2023-02-28T17:28:19;228.50;;;68.65;;
53401;SDS011;39295;45.534;20.034;2023-02-28T17:30:45;214.52;;;64.40;;
53401;SDS011;39295;45.534;20.034;2023-02-28T17:33:12;251.57;;;71.95;;
53401;SDS011;39295;45.534;20.034;2023-02-28T17:35:38;209.77;;;62.15;;
53401;SDS011;39295;45.534;20.034;2023-02-28T17:38:04;160.05;;;51.50;;
53401;SDS011;39295;45.534;20.034;2023-02-28T17:40:30;196.52;;;57.58;;
53401;SDS011;39295;45.534;20.034;2023-02-28T17:42:58;154.70;;;49.10;;
53401;SDS011;39295;45.534;20.034;2023-02-28T17:45:25;200.27;;;60.03;;
53401;SDS011;39295;45.534;20.034;2023-02-28T17:47:51;180.15;;;58.53;;
53401;SDS011;39295;45.534;20.034;2023-02-28T17:50:18;169.65;;;58.53;;
53401;SDS011;39295;45.534;20.034;2023-02-28T17:52:44;170.80;;;55.75;;
53401;SDS011;39295;45.534;20.034;2023-02-28T17:55:11;136.90;;;55.80;;
53401;SDS011;39295;45.534;20.034;2023-02-28T17:57:37;129.65;;;54.10;;
53401;SDS011;39295;45.534;20.034;2023-02-28T18:00:03;134.55;;;54.58;;
53401;SDS011;39295;45.534;20.034;2023-02-28T18:02:31;136.90;;;52.65;;
53401;SDS011;39295;45.534;20.034;2023-02-28T18:04:57;125.47;;;52.55;;
53401;SDS011;39295;45.534;20.034;2023-02-28T18:07:24;113.75;;;45.03;;
53401;SDS011;39295;45.534;20.034;2023-02-28T18:09:50;106.13;;;42.55;;
53401;SDS011;39295;45.534;20.034;2023-02-28T18:12:16;106.82;;;41.25;;
53401;SDS011;39295;45.534;20.034;2023-02-28T18:14:42;106.88;;;40.85;;
53401;SDS011;39295;45.534;20.034;2023-02-28T18:17:11;118.25;;;41.88;;
53401;SDS011;39295;45.534;20.034;2023-02-28T18:19:37;125.60;;;41.88;;